createdAt,value
2017-07-20T00:17:55.056Z,22.70
2017-07-20T00:32:07.462Z,22.70
2017-07-20T00:34:55.847Z,22.60
2017-07-20T00:37:38.109Z,22.60
2017-07-20T00:46:42.508Z,22.70
2017-07-20T00:58:28.290Z,22.80
2017-07-20T01:01:03.488Z,22.80
2017-07-20T01:03:32.794Z,22.80
2017-07-20T01:09:34.725Z,22.70
2017-07-20T02:16:49.010Z,22.50
2017-07-20T02:25:57.730Z,22.40
2017-07-20T02:28:45.088Z,22.40
2017-07-20T02:31:31.322Z,22.30
2017-07-20T02:34:04.957Z,22.30
2017-07-20T02:36:42.033Z,22.40
2017-07-20T02:45:16.841Z,22.30
2017-07-20T02:47:51.885Z,22.40
2017-07-20T02:50:20.759Z,22.40
2017-07-20T02:52:52.669Z,22.40
2017-07-20T03:37:43.486Z,22.40
2017-07-20T03:42:57.014Z,22.30
2017-07-20T03:45:57.256Z,22.20
2017-07-20T03:48:49.939Z,22.20
2017-07-20T04:36:16.056Z,21.20
2017-07-20T04:41:47.630Z,21.10
2017-07-20T04:44:16.888Z,21.20
2017-07-20T04:46:45.787Z,21.30
2017-07-20T04:49:14.673Z,21.30
2017-07-20T04:51:43.570Z,21.20
2017-07-20T04:54:12.457Z,21.10
2017-07-20T04:56:41.354Z,21.10
2017-07-20T04:59:10.238Z,21.20
2017-07-20T05:01:40.132Z,21.30
2017-07-20T05:04:09.801Z,21.60
2017-07-20T05:06:38.706Z,21.50
2017-07-20T05:09:08.376Z,21.70
2017-07-20T05:11:38.089Z,21.70
2017-07-20T05:14:07.926Z,21.80
2017-07-20T05:16:37.804Z,21.80
2017-07-20T05:19:10.982Z,21.80
2017-07-20T05:21:42.800Z,21.90
2017-07-20T05:26:56.301Z,22.00
2017-07-20T05:29:25.189Z,22.10
2017-07-20T05:31:54.458Z,22.20
2017-07-20T05:34:23.400Z,22.20
2017-07-20T05:36:52.295Z,22.20
2017-07-20T05:39:21.003Z,22.30
2017-07-20T05:41:49.882Z,22.30
2017-07-20T05:44:18.567Z,22.30
2017-07-20T05:46:48.440Z,22.30
2017-07-20T05:49:17.999Z,22.30
2017-07-20T05:51:46.880Z,22.40
2017-07-20T05:54:15.421Z,22.50
2017-07-20T05:56:45.072Z,22.60
2017-07-20T05:59:13.935Z,22.60
2017-07-20T06:01:43.592Z,22.80
2017-07-20T06:04:12.551Z,22.80
2017-07-20T06:06:41.485Z,22.90
2017-07-20T06:09:11.348Z,23.00
2017-07-20T06:11:40.242Z,23.10
2017-07-20T06:14:09.150Z,23.20
2017-07-20T06:16:38.784Z,23.20
2017-07-20T06:19:08.470Z,23.30
2017-07-20T06:21:37.369Z,23.40
2017-07-20T06:24:06.290Z,23.40
2017-07-20T06:26:40.014Z,23.50
2017-07-20T06:32:05.750Z,23.50
2017-07-20T06:34:35.450Z,23.70
2017-07-20T06:37:04.358Z,23.70
2017-07-20T06:39:33.270Z,23.80
2017-07-20T06:42:02.974Z,23.80
2017-07-20T06:44:33.273Z,23.80
2017-07-20T06:47:02.190Z,23.80
2017-07-20T06:49:31.863Z,23.80
2017-07-20T06:52:00.758Z,23.80
2017-07-20T06:54:30.527Z,23.80
2017-07-20T06:56:59.424Z,23.90
2017-07-20T06:59:28.342Z,24.00
2017-07-20T07:01:57.255Z,24.00
2017-07-20T07:04:26.138Z,24.10
2017-07-20T07:06:55.041Z,24.20
2017-07-20T07:09:23.944Z,24.30
2017-07-20T07:11:53.212Z,24.40
2017-07-20T07:14:23.084Z,24.50
2017-07-20T07:19:40.265Z,24.70
2017-07-20T07:24:59.643Z,24.70
2017-07-20T07:27:32.614Z,24.80
2017-07-20T07:30:10.138Z,24.80
2017-07-20T07:32:45.508Z,24.80
2017-07-20T07:35:20.647Z,24.90
2017-07-20T07:37:56.048Z,25.10
2017-07-20T07:40:35.174Z,25.10
2017-07-20T07:43:08.098Z,25.10
2017-07-20T07:45:40.182Z,25.30
2017-07-20T07:48:16.252Z,25.50
2017-07-20T07:50:50.758Z,25.60
2017-07-20T07:53:20.890Z,25.60
2017-07-20T07:58:37.222Z,25.70
2017-07-20T08:01:14.876Z,25.80
2017-07-20T08:03:52.124Z,26.00
2017-07-20T08:06:27.905Z,26.20
2017-07-20T08:09:01.880Z,26.30
2017-07-20T08:11:46.560Z,26.20
2017-07-20T08:14:23.833Z,26.20
2017-07-20T08:16:58.031Z,26.20
2017-07-20T08:19:34.900Z,26.30
2017-07-20T08:22:08.075Z,26.40
2017-07-20T08:24:42.509Z,26.50
2017-07-20T08:27:15.651Z,26.50
2017-07-20T08:29:59.881Z,26.60
2017-07-20T08:32:55.249Z,26.70
2017-07-20T08:35:29.858Z,26.80
2017-07-20T08:38:06.129Z,26.90
2017-07-20T08:40:41.380Z,27.10
2017-07-20T08:43:20.594Z,27.00
2017-07-20T08:45:59.579Z,27.10
2017-07-20T08:51:22.064Z,27.40
2017-07-20T08:59:42.648Z,27.80
2017-07-20T09:02:16.273Z,27.80
2017-07-20T09:04:55.964Z,27.90
2017-07-20T09:07:34.510Z,28.00
2017-07-20T09:13:01.965Z,28.00
2017-07-20T09:21:51.141Z,28.80
2017-07-20T09:24:25.584Z,29.10
2017-07-20T09:33:13.874Z,29.40
2017-07-20T10:23:08.712Z,31.60
2017-07-20T10:25:54.442Z,31.60
2017-07-20T10:28:43.660Z,31.80
2017-07-20T10:34:34.119Z,31.90
2017-07-20T10:37:12.478Z,31.80
2017-07-20T10:49:12.412Z,31.30
2017-07-20T10:51:51.964Z,31.30
2017-07-20T10:54:33.441Z,31.10
2017-07-20T11:00:03.528Z,31.50
2017-07-20T11:02:46.784Z,31.50
2017-07-20T11:05:26.468Z,31.60
2017-07-20T11:08:08.542Z,31.50
2017-07-20T11:11:12.351Z,31.20
2017-07-20T11:14:00.777Z,31.10
2017-07-20T11:19:19.782Z,31.10
2017-07-20T11:25:39.667Z,30.90
2017-07-20T11:37:25.741Z,30.80
2017-07-20T11:48:43.434Z,31.10
2017-07-20T11:51:26.814Z,31.10
2017-07-20T12:02:40.083Z,31.00
2017-07-20T12:05:25.736Z,31.00
2017-07-20T12:16:38.315Z,30.40
2017-07-20T12:38:15.585Z,31.50
2017-07-20T13:18:56.982Z,31.40
2017-07-20T13:37:37.593Z,31.50
2017-07-20T13:50:33.292Z,31.60
2017-07-20T13:55:44.826Z,31.40
2017-07-20T13:58:17.816Z,31.10
2017-07-20T14:00:59.832Z,31.00
2017-07-20T14:03:41.093Z,30.90
2017-07-20T14:06:16.959Z,30.80
2017-07-20T14:08:45.582Z,30.60
2017-07-20T14:11:15.322Z,30.50
2017-07-20T14:13:43.950Z,30.40
2017-07-20T14:16:12.582Z,30.40
2017-07-20T14:18:41.214Z,30.20
2017-07-20T14:21:09.851Z,30.10
2017-07-20T14:23:38.679Z,30.10
2017-07-20T14:26:07.319Z,30.00
2017-07-20T14:28:37.520Z,29.80
2017-07-20T14:31:06.136Z,29.70
2017-07-20T14:33:34.749Z,29.70
2017-07-20T14:36:03.383Z,29.50
2017-07-20T14:38:32.796Z,29.30
2017-07-20T14:41:02.016Z,29.20
2017-07-20T14:43:30.651Z,29.20
2017-07-20T14:45:59.285Z,29.20
2017-07-20T14:48:27.901Z,29.20
2017-07-20T14:50:56.525Z,29.20
2017-07-20T14:53:25.159Z,29.10
2017-07-20T14:55:53.784Z,29.00
2017-07-20T14:58:22.416Z,29.00
2017-07-20T15:00:51.040Z,28.90
2017-07-20T15:03:23.680Z,28.90
2017-07-20T15:05:59.733Z,29.00
2017-07-20T15:08:30.445Z,29.10
2017-07-20T15:11:01.479Z,29.10
2017-07-20T15:13:36.084Z,29.20
2017-07-20T15:21:35.761Z,29.40
2017-07-20T15:24:11.924Z,29.30
2017-07-20T15:26:48.944Z,29.40
2017-07-20T15:29:23.010Z,29.40
2017-07-20T15:31:55.669Z,29.50
2017-07-20T15:34:29.712Z,29.50
2017-07-20T15:37:15.615Z,29.40
2017-07-20T15:39:44.252Z,29.40
2017-07-20T15:42:12.899Z,29.50
2017-07-20T15:44:41.528Z,29.50
2017-07-20T15:47:10.165Z,29.50
2017-07-20T15:49:38.785Z,29.50
2017-07-20T15:52:07.490Z,29.60
2017-07-20T15:54:36.108Z,29.70
2017-07-20T15:57:05.515Z,29.90
2017-07-20T15:59:34.891Z,29.90
2017-07-20T16:02:03.522Z,29.90
2017-07-20T16:04:32.312Z,29.80
2017-07-20T16:07:00.935Z,29.80
2017-07-20T16:09:30.567Z,29.80
2017-07-20T16:11:59.240Z,29.80
2017-07-20T16:14:27.868Z,29.70
2017-07-20T16:16:58.308Z,29.50
2017-07-20T16:19:26.920Z,29.50
2017-07-20T16:21:57.434Z,29.40
2017-07-20T16:24:26.052Z,29.30
2017-07-20T16:26:54.676Z,29.20
2017-07-20T16:29:24.076Z,29.10
2017-07-20T16:31:52.713Z,29.00
2017-07-20T16:34:21.393Z,29.00
2017-07-20T16:36:50.035Z,29.00
2017-07-20T16:39:18.613Z,28.90
2017-07-20T16:41:47.961Z,28.70
2017-07-20T16:44:16.559Z,28.70
2017-07-20T16:46:45.147Z,28.70
2017-07-20T16:49:13.782Z,28.60
2017-07-20T16:51:42.413Z,28.50
2017-07-20T16:54:11.049Z,28.50
2017-07-20T16:56:41.919Z,28.40
2017-07-20T16:59:10.585Z,28.40
2017-07-20T17:01:39.869Z,28.30
2017-07-20T17:04:08.498Z,28.20
2017-07-20T17:06:37.130Z,28.10
2017-07-20T17:09:05.396Z,28.00
2017-07-20T17:11:34.035Z,27.90
2017-07-20T17:14:03.136Z,27.90
2017-07-20T17:16:31.766Z,27.90
2017-07-20T17:19:00.389Z,27.70
2017-07-20T17:21:29.004Z,27.40
2017-07-20T17:23:57.635Z,26.60
2017-07-20T17:26:27.034Z,25.70
2017-07-20T17:28:56.426Z,25.50
2017-07-20T17:31:25.052Z,25.50
2017-07-20T17:33:53.673Z,25.20
2017-07-20T17:36:22.302Z,25.00
2017-07-20T17:38:50.933Z,24.90
2017-07-20T17:41:19.587Z,24.80
2017-07-20T17:43:48.211Z,24.70
2017-07-20T17:46:16.944Z,24.60
2017-07-20T17:48:46.412Z,24.40
2017-07-20T17:51:15.327Z,24.30
2017-07-20T17:53:43.950Z,24.20
2017-07-20T17:56:12.555Z,24.10
2017-07-20T17:58:43.366Z,23.90
2017-07-20T18:01:12.262Z,23.90
2017-07-20T18:03:41.166Z,23.90
2017-07-20T18:06:10.821Z,23.90
2017-07-20T18:08:39.718Z,23.90
2017-07-20T18:11:08.612Z,23.90
2017-07-20T18:13:37.513Z,24.00
2017-07-20T18:16:06.457Z,23.90
2017-07-20T18:18:36.471Z,23.80
2017-07-20T18:21:05.397Z,23.80
2017-07-20T18:23:34.299Z,23.80
2017-07-20T18:26:03.152Z,23.80
2017-07-20T18:28:44.829Z,23.80
2017-07-20T18:31:14.507Z,23.80
2017-07-20T18:33:43.422Z,23.80
2017-07-20T18:36:12.406Z,23.90
2017-07-20T18:38:41.304Z,23.80
2017-07-20T18:41:10.196Z,23.90
2017-07-20T18:43:39.095Z,23.90
2017-07-20T18:46:07.984Z,23.90
2017-07-20T18:48:36.852Z,23.90
2017-07-20T18:51:05.727Z,23.80
2017-07-20T18:53:34.606Z,23.80
2017-07-20T18:56:03.598Z,23.70
2017-07-20T18:58:32.314Z,23.80
2017-07-20T19:01:01.210Z,23.80
2017-07-20T19:03:29.761Z,23.80
2017-07-20T19:05:58.671Z,23.70
2017-07-20T19:08:27.557Z,23.70
2017-07-20T19:10:56.439Z,23.70
2017-07-20T19:13:25.319Z,23.70
2017-07-20T19:15:54.214Z,23.70
2017-07-20T19:18:23.101Z,23.60
2017-07-20T19:20:51.985Z,23.60
2017-07-20T19:23:20.876Z,23.60
2017-07-20T19:25:50.526Z,23.60
2017-07-20T19:28:19.422Z,23.50
2017-07-20T19:30:48.310Z,23.50
2017-07-20T19:33:17.205Z,23.40
2017-07-20T19:35:46.105Z,23.50
2017-07-20T19:38:15.007Z,23.50
2017-07-20T19:40:43.867Z,23.50
2017-07-20T19:43:12.756Z,23.60
2017-07-20T19:45:41.620Z,23.60
2017-07-20T19:48:11.281Z,23.60
2017-07-20T19:50:40.182Z,23.60
2017-07-20T19:53:09.080Z,23.50
2017-07-20T19:55:37.978Z,23.50
2017-07-20T19:58:06.868Z,23.50
2017-07-20T20:00:35.770Z,23.40
2017-07-20T20:03:05.429Z,23.40
2017-07-20T20:05:34.325Z,23.30
2017-07-20T20:08:03.302Z,23.30
2017-07-20T20:10:32.180Z,23.30
2017-07-20T20:13:00.953Z,23.30
2017-07-20T20:15:30.633Z,23.30
2017-07-20T20:17:59.529Z,23.30
2017-07-20T20:20:28.414Z,23.20
2017-07-20T20:22:57.314Z,23.20
2017-07-20T20:25:26.228Z,23.20
2017-07-20T20:27:55.886Z,23.20
2017-07-20T20:30:24.864Z,23.10
2017-07-20T20:32:53.743Z,23.10
2017-07-20T20:35:22.628Z,23.20
2017-07-20T20:37:51.527Z,23.10
2017-07-20T20:40:20.416Z,23.10
2017-07-20T20:42:49.362Z,23.10
2017-07-20T20:45:18.243Z,23.00
2017-07-20T20:47:47.133Z,23.00
2017-07-20T20:50:16.008Z,23.00
2017-07-20T20:52:44.894Z,23.00
2017-07-20T20:55:13.881Z,23.00
2017-07-20T20:57:42.774Z,23.10
2017-07-20T21:00:11.674Z,23.20
2017-07-20T21:02:40.577Z,23.20
2017-07-20T21:05:09.486Z,23.20
2017-07-20T21:07:38.369Z,23.20
2017-07-20T21:10:07.277Z,23.20
2017-07-20T21:12:36.160Z,23.20
2017-07-20T21:15:04.714Z,23.20
2017-07-20T21:17:33.605Z,23.20
2017-07-20T21:20:02.509Z,23.10
2017-07-20T21:22:31.394Z,23.10
2017-07-20T21:25:00.286Z,23.10
2017-07-20T21:27:29.224Z,23.00
2017-07-20T21:29:58.120Z,23.00
2017-07-20T21:32:27.791Z,22.90
2017-07-20T21:34:56.663Z,22.90
2017-07-20T21:37:25.568Z,22.90
2017-07-20T21:39:54.487Z,22.80
2017-07-20T21:42:23.382Z,22.70
2017-07-20T21:44:52.246Z,22.70
2017-07-20T21:47:21.108Z,22.60
2017-07-20T21:49:49.975Z,22.60
2017-07-20T21:52:18.882Z,22.60
2017-07-20T21:54:48.564Z,22.60
2017-07-20T21:57:17.449Z,22.60
2017-07-20T21:59:46.337Z,22.60
2017-07-20T22:02:15.223Z,22.60
2017-07-20T22:04:45.049Z,22.60
2017-07-20T22:07:13.934Z,22.50
2017-07-20T22:09:42.829Z,22.50
2017-07-20T22:12:11.723Z,22.50
2017-07-20T22:14:41.306Z,22.50
2017-07-20T22:17:10.209Z,22.50
2017-07-20T22:19:39.110Z,22.40
2017-07-20T22:22:07.998Z,22.40
2017-07-20T22:24:36.866Z,22.40
2017-07-20T22:27:05.754Z,22.40
2017-07-20T22:29:34.645Z,22.40
2017-07-20T22:32:03.532Z,22.50
2017-07-20T22:34:33.961Z,22.50
2017-07-20T22:37:02.852Z,22.50
2017-07-20T22:39:31.744Z,22.40
2017-07-20T22:42:01.318Z,22.40
2017-07-20T22:44:30.993Z,22.40
2017-07-20T22:46:59.876Z,22.40
2017-07-20T22:49:28.775Z,22.30
2017-07-20T22:51:57.680Z,22.30
2017-07-20T22:54:26.583Z,22.30
2017-07-20T22:56:59.203Z,22.20
2017-07-20T22:59:28.092Z,22.30
2017-07-20T23:01:56.982Z,22.20
2017-07-20T23:04:25.875Z,22.20
2017-07-20T23:06:54.757Z,22.10
2017-07-20T23:09:23.747Z,22.10
2017-07-20T23:11:52.639Z,22.10
2017-07-20T23:14:20.850Z,22.10
2017-07-20T23:16:49.753Z,22.10
2017-07-20T23:19:18.649Z,22.10
2017-07-20T23:21:47.539Z,22.10
2017-07-20T23:24:16.397Z,22.00
2017-07-20T23:26:45.281Z,22.10
2017-07-20T23:29:14.172Z,22.10
2017-07-20T23:31:43.069Z,22.10
2017-07-20T23:34:11.918Z,22.10
2017-07-20T23:36:40.778Z,22.10
2017-07-20T23:39:09.683Z,22.00
2017-07-20T23:41:38.584Z,22.00
2017-07-20T23:44:07.524Z,22.00
2017-07-20T23:46:38.085Z,22.00
2017-07-20T23:49:07.017Z,22.00
2017-07-20T23:51:36.681Z,22.00
2017-07-20T23:54:05.574Z,22.00
2017-07-20T23:56:34.475Z,21.90
2017-07-20T23:59:03.378Z,21.90
